Bei Facebook empfehlenBei Twitter postenGoogle plusPinterest

Das Wetter im Erzgebirge am 17.02.2017

Wetter und Klima am 17.02.2017 Holzhau im Erzgebirge (630m ü.NN)
Letzte gemessene Temperatur und Uhrzeit der Messung23:45:00 Uhr1.20 °C
Temperatur (Maximum / Höchstwert) und Uhrzeit der Messung13:15:00 Uhr6.00 °C
Temperatur (Minimum / Tiefstwert) und Uhrzeit der Messung18:30:000.80 °C
Errechneter Absolutwert der Temperaturschwankungen zwischen Tmin und Tmax des Tages5.20 K
Errechnete Tagesmitteltemperatur2.13958 °C
Gesamt - Niederschlag des Tages (in flüssiger Form)9.84 Liter / m²
Luftdruck (Maximum / Höchstwert) und Zeitpunkt der Messung00:00:00 Uhr1020.70 hPa
Luftdruck (Minimum / Tiefstwert) und Zeitpunkt der Messung15:00:00 Uhr1016.80 hPa
Errechneter Absolutwert der Luftdruckschwankungen des Tages3.90 hPa
Höchste gemessene Windgeschwindigkeit und Uhrzeit der Messung16:30:00 Uhr7.92 km/h
Errechnete Windhäufigkeit in Relation zu den Messwerten des Tages30.20833 %
Niedrigste Windkühle (Windchill) und Zeitpunkt der Messung16:30:00 Uhr-0.50 °C
Taupunkt (Maximum / Höchstwert) und Uhrzeit der Messung13:15:00 Uhr2.50 °C
Taupunkt (Minimum / Tiefstwert) und Uhrzeit der Messung18:30:00-0.50 °C
Anzahl der automatisch eingelesenen Messwerte 96

Detaillierte Wetter- und Klima- Messwerte für den 17.02.2017 in Holzhau im Erzgebirge (630m ü.NN)
ZeitTemperaturLuftdruckRel. LuftfeuchteWindWindrichtungWindchillTaupunktNiederschlag l/m²
23:45:001.20 °C1017.80 hPa94.00 %0.30 °C9.84
23:30:001.30 °C1017.80 hPa94.00 %0.40 °C9.32
23:15:001.30 °C1017.80 hPa94.00 %0.40 °C9.32
23:00:001.30 °C1017.60 hPa94.00 %0.40 °C9.32
22:45:001.30 °C1017.60 hPa94.00 %2.52 km/hWNW1.30 °C0.40 °C9.32
22:30:001.30 °C1017.60 hPa94.00 %0.40 °C9.32
22:15:001.30 °C1017.60 hPa94.00 %0.40 °C9.32
22:00:001.30 °C1017.60 hPa94.00 %0.40 °C9.32
21:45:001.40 °C1017.60 hPa94.00 %0.50 °C8.80
21:30:001.50 °C1017.60 hPa93.00 %2.52 km/hNW1.50 °C0.50 °C8.80
21:15:001.50 °C1017.50 hPa93.00 %0.50 °C8.29
21:00:001.60 °C1017.40 hPa93.00 %0.60 °C8.29
20:45:001.60 °C1017.50 hPa93.00 %0.60 °C8.29
20:30:001.60 °C1017.40 hPa93.00 %1.44 km/hW1.60 °C0.60 °C8.29
20:15:001.60 °C1017.30 hPa94.00 %1.80 km/hWSW1.60 °C0.70 °C8.29
20:00:001.70 °C1017.20 hPa93.00 %4.32 km/hWNW1.70 °C0.70 °C7.77
19:45:001.70 °C1017.10 hPa93.00 %0.70 °C7.77
19:30:001.60 °C1017.20 hPa93.00 %0.60 °C7.77
19:15:001.50 °C1017.20 hPa93.00 %0.50 °C7.77
19:00:001.30 °C1017.20 hPa92.00 %0.10 °C7.77
18:45:001.10 °C1017.00 hPa92.00 %-0.10 °C7.77
18:30:000.80 °C1017.00 hPa91.00 %-0.50 °C7.25
18:15:000.80 °C1017.00 hPa91.00 %-0.50 °C7.25
18:00:000.90 °C1017.00 hPa91.00 %-0.40 °C7.25
17:45:001.10 °C1017.00 hPa91.00 %-0.20 °C6.73
17:30:001.30 °C1017.00 hPa91.00 %0.00 °C6.73
17:15:001.50 °C1017.00 hPa91.00 %3.96 km/hWNW1.50 °C0.20 °C6.21
17:00:001.70 °C1017.00 hPa90.00 %2.16 km/hNNW1.70 °C0.20 °C6.21
16:45:001.80 °C1017.10 hPa90.00 %0.30 °C5.70
16:30:001.90 °C1017.20 hPa89.00 %7.92 km/hNNW-0.50 °C0.30 °C5.70
16:15:002.10 °C1017.10 hPa88.00 %0.30 °C5.70
16:00:002.50 °C1017.10 hPa88.00 %4.68 km/hNW2.50 °C0.70 °C5.70
15:45:002.70 °C1017.20 hPa86.00 %1.44 km/hWNW2.70 °C0.60 °C5.18
15:30:003.10 °C1017.10 hPa85.00 %0.80 °C5.18
15:15:003.70 °C1017.10 hPa83.00 %3.96 km/hWNW3.70 °C1.10 °C5.18
15:00:004.60 °C1016.80 hPa80.00 %6.84 km/hW3.00 °C1.50 °C5.18
14:45:005.30 °C1016.90 hPa79.00 %1.80 km/hW5.30 °C2.00 °C5.18
14:30:005.10 °C1017.00 hPa79.00 %1.44 km/hWSW5.10 °C1.80 °C5.18
14:15:005.00 °C1017.00 hPa80.00 %1.80 °C5.18
14:00:004.90 °C1017.00 hPa78.00 %3.24 km/hWNW4.90 °C1.40 °C5.18
13:45:005.40 °C1017.10 hPa77.00 %1.80 km/hWSW5.40 °C1.70 °C5.18
13:30:005.80 °C1017.40 hPa77.00 %2.52 km/hNW5.80 °C2.10 °C5.18
13:15:006.00 °C1017.40 hPa78.00 %7.92 km/hWNW4.30 °C2.50 °C5.18
13:00:005.40 °C1017.40 hPa80.00 %5.76 km/hW4.30 °C2.20 °C5.18
12:45:005.30 °C1017.40 hPa80.00 %1.80 km/hW5.30 °C2.10 °C5.18
12:30:005.10 °C1017.50 hPa83.00 %5.40 km/hWSW4.00 °C2.50 °C5.18
12:15:004.20 °C1017.50 hPa88.00 %6.84 km/hW2.50 °C2.40 °C5.18
12:00:003.00 °C1017.60 hPa89.00 %1.40 °C5.18
11:45:002.90 °C1017.80 hPa89.00 %3.60 km/hW2.90 °C1.30 °C5.18
11:30:003.00 °C1017.80 hPa89.00 %1.40 °C5.18
11:15:002.90 °C1017.90 hPa89.00 %1.30 °C5.18
11:00:003.00 °C1017.80 hPa90.00 %1.50 °C5.18
10:45:002.70 °C1017.70 hPa91.00 %1.40 °C5.18
10:30:002.30 °C1017.70 hPa92.00 %1.08 km/hW2.30 °C1.10 °C5.18
10:15:001.90 °C1017.60 hPa93.00 %7.56 km/hNNW-0.40 °C0.90 °C5.18
10:00:001.50 °C1017.70 hPa93.00 %1.80 km/hW1.50 °C0.50 °C5.18
09:45:001.30 °C1017.60 hPa93.00 %0.30 °C5.18
09:30:001.30 °C1017.70 hPa93.00 %1.44 km/hNW1.30 °C0.30 °C5.18
09:15:001.20 °C1017.60 hPa93.00 %1.44 km/hWNW1.20 °C0.20 °C5.18
09:00:001.20 °C1017.70 hPa93.00 %0.20 °C5.18
08:45:001.10 °C1017.50 hPa93.00 %0.10 °C5.18
08:30:000.90 °C1017.60 hPa93.00 %-0.10 °C5.18
08:15:000.90 °C1017.60 hPa93.00 %-0.10 °C4.66
08:00:000.90 °C1017.80 hPa92.00 %-0.20 °C4.66
07:45:000.90 °C1017.80 hPa92.00 %-0.20 °C4.66
07:30:000.90 °C1017.70 hPa92.00 %-0.20 °C4.14
07:15:001.00 °C1017.70 hPa92.00 %-0.10 °C4.14
07:00:001.10 °C1017.70 hPa92.00 %-0.10 °C3.62
06:45:001.20 °C1017.50 hPa91.00 %-0.10 °C3.11
06:30:001.30 °C1017.40 hPa91.00 %0.00 °C2.07
06:15:001.30 °C1017.40 hPa91.00 %0.00 °C2.07
06:00:001.10 °C1017.60 hPa91.00 %-0.20 °C2.07
05:45:000.90 °C1017.50 hPa91.00 %-0.40 °C2.07
05:30:000.90 °C1017.60 hPa91.00 %-0.40 °C2.07
05:15:000.90 °C1017.80 hPa91.00 %-0.40 °C2.07
05:00:000.90 °C1017.80 hPa91.00 %-0.40 °C2.07
04:45:000.90 °C1017.80 hPa91.00 %-0.40 °C2.07
04:30:001.00 °C1017.90 hPa91.00 %-0.30 °C2.07
04:15:001.10 °C1018.20 hPa90.00 %-0.40 °C2.07
04:00:001.30 °C1018.30 hPa90.00 %-0.20 °C1.55
03:45:001.40 °C1018.30 hPa90.00 %-0.10 °C1.55
03:30:001.60 °C1018.40 hPa90.00 %0.10 °C1.55
03:15:001.60 °C1018.60 hPa90.00 %0.10 °C1.55
03:00:001.80 °C1018.70 hPa90.00 %0.30 °C1.55
02:45:002.10 °C1019.30 hPa90.00 %0.60 °C1.55
02:30:002.40 °C1019.30 hPa90.00 %0.90 °C1.03
02:15:002.60 °C1019.50 hPa90.00 %1.10 °C1.03
02:00:002.80 °C1019.50 hPa88.00 %1.00 °C0.52
01:45:002.80 °C1019.50 hPa88.00 %1.44 km/hWSW2.80 °C1.00 °C 
01:30:002.80 °C1019.70 hPa87.00 %0.90 °C 
01:15:002.90 °C1019.80 hPa87.00 %1.00 °C 
01:00:003.10 °C1019.80 hPa87.00 %1.20 °C 
00:45:003.10 °C1020.10 hPa87.00 %1.20 °C 
00:30:003.20 °C1020.30 hPa88.00 %1.40 °C 
00:15:002.70 °C1020.40 hPa88.00 %0.90 °C 
00:00:001.80 °C1020.70 hPa86.00 %-0.30 °C 

Permanenter Link zu dieser Seite: Wetter im Erzgebirge am 17.02.2017
Performance-Info: Die Erstellung der Seite / Statistik(en) / Tabelle(n) erforderte 5 Datenbankserver-Abfrage(n) und dauerte 106 Millisekunden. (Dieser Messwert ist von der Gesamt-Auslastung des Servers abhängig.)
Erzgebirge - Wetter | Erzgebirge - Wetter (Mobilgeräte) | Komplette Klimadatenbank